createdAt,value
2024-03-02T00:00:25.978Z,96051.31
2024-03-02T00:02:53.610Z,96048.16
2024-03-02T00:05:21.439Z,96049.84
2024-03-02T00:07:54.647Z,96041.78
2024-03-02T00:10:26.403Z,96040.09
2024-03-02T00:12:54.050Z,96032.41
2024-03-02T00:15:28.812Z,96034.44
2024-03-02T00:17:56.836Z,96033.00
2024-03-02T00:20:24.767Z,96040.47
2024-03-02T00:22:52.750Z,96046.16
2024-03-02T00:25:20.306Z,96049.00
2024-03-02T00:27:51.058Z,96048.00
2024-03-02T00:30:34.806Z,96040.09
2024-03-02T00:33:02.409Z,96034.50
2024-03-02T00:35:29.972Z,96023.94
2024-03-02T00:37:57.483Z,96034.19
2024-03-02T00:40:25.057Z,96037.56
2024-03-02T00:42:57.127Z,96046.28
2024-03-02T00:45:25.903Z,96048.63
2024-03-02T00:47:53.743Z,96065.94
2024-03-02T00:50:27.047Z,96084.09
2024-03-02T00:52:58.461Z,96096.69
2024-03-02T00:55:26.041Z,96088.09
2024-03-02T00:57:53.807Z,96110.63
2024-03-02T01:00:23.269Z,96117.63
2024-03-02T01:02:51.805Z,96115.34
2024-03-02T01:05:19.649Z,96118.91
2024-03-02T01:07:47.206Z,96127.63
2024-03-02T01:10:15.060Z,96126.72
2024-03-02T01:12:42.752Z,96116.63
2024-03-02T01:15:10.995Z,96106.00
2024-03-02T01:17:40.053Z,96097.97
2024-03-02T01:20:10.603Z,96109.88
2024-03-02T01:22:38.627Z,96115.38
2024-03-02T01:25:07.055Z,96106.50
2024-03-02T01:27:35.090Z,96121.78
2024-03-02T01:30:02.777Z,96131.38
2024-03-02T01:32:30.787Z,96129.38
2024-03-02T01:34:59.735Z,96123.75
2024-03-02T01:37:27.317Z,96130.25
2024-03-02T01:39:55.272Z,96125.16
2024-03-02T01:42:23.379Z,96112.84
2024-03-02T01:44:54.033Z,96122.22
2024-03-02T01:47:21.650Z,96120.91
2024-03-02T01:49:49.211Z,96121.44
2024-03-02T01:52:18.083Z,96124.22
2024-03-02T01:54:45.704Z,96125.22
2024-03-02T01:57:13.372Z,96125.09
2024-03-02T01:59:40.941Z,96121.28
2024-03-02T02:02:08.693Z,96126.97
2024-03-02T02:04:36.256Z,96117.09
2024-03-02T02:07:03.855Z,96120.25
2024-03-02T02:09:32.812Z,96106.94
2024-03-02T02:12:00.536Z,96112.97
2024-03-02T02:14:28.413Z,96107.97
2024-03-02T02:16:56.041Z,96106.44
2024-03-02T02:19:24.130Z,96107.09
2024-03-02T02:21:53.109Z,96100.53
2024-03-02T02:24:20.852Z,96104.16
2024-03-02T02:26:52.158Z,96111.00
2024-03-02T02:29:19.931Z,96117.94
2024-03-02T02:31:47.550Z,96129.38
2024-03-02T02:34:16.236Z,96124.16
2024-03-02T02:36:44.231Z,96125.81
2024-03-02T02:39:14.410Z,96128.91
2024-03-02T02:41:42.017Z,96125.84
2024-03-02T02:44:13.895Z,96135.63
2024-03-02T02:46:41.490Z,96139.56
2024-03-02T02:49:09.135Z,96137.22
2024-03-02T02:51:36.829Z,96152.06
2024-03-02T02:54:04.572Z,96152.03
2024-03-02T02:56:33.710Z,96152.88
2024-03-02T02:59:01.292Z,96146.19
2024-03-02T03:01:29.492Z,96148.34
2024-03-02T03:03:57.292Z,96151.81
2024-03-02T03:06:25.403Z,96144.66
2024-03-02T03:08:53.044Z,96146.47
2024-03-02T03:11:20.747Z,96149.19
2024-03-02T03:13:49.653Z,96152.88
2024-03-02T03:16:17.391Z,96150.31
2024-03-02T03:18:45.024Z,96145.50
2024-03-02T03:21:12.621Z,96138.50
2024-03-02T03:23:40.326Z,96140.53
2024-03-02T03:26:08.048Z,96137.03
2024-03-02T03:28:35.647Z,96132.63
2024-03-02T03:31:04.783Z,96130.78
2024-03-02T03:33:32.409Z,96126.25
2024-03-02T03:36:00.024Z,96124.53
2024-03-02T03:38:27.758Z,96126.25
2024-03-02T03:40:56.330Z,96130.25
2024-03-02T03:43:23.979Z,96131.56
2024-03-02T03:45:51.624Z,96132.47
2024-03-02T03:48:20.909Z,96126.03
2024-03-02T03:50:48.536Z,96126.97
2024-03-02T03:53:17.122Z,96117.28
2024-03-02T03:55:44.928Z,96115.63
2024-03-02T03:58:12.562Z,96116.19
2024-03-02T04:00:40.244Z,96119.38
2024-03-02T04:03:07.931Z,96125.22
2024-03-02T04:05:36.878Z,96129.72
2024-03-02T04:08:04.578Z,96123.09
2024-03-02T04:10:32.550Z,96128.47
2024-03-02T04:13:00.256Z,96131.09
2024-03-02T04:15:27.876Z,96134.34
2024-03-02T04:17:56.405Z,96136.44
2024-03-02T04:20:23.930Z,96135.75
2024-03-02T04:22:52.895Z,96132.75
2024-03-02T04:25:21.103Z,96136.63
2024-03-02T04:27:48.759Z,96126.75
2024-03-02T04:30:16.548Z,96127.13
2024-03-02T04:32:47.402Z,96146.75
2024-03-02T04:35:15.195Z,96132.50
2024-03-02T04:37:42.759Z,96146.69
2024-03-02T04:40:13.053Z,96140.78
2024-03-02T04:42:40.632Z,96157.47
2024-03-02T04:45:08.806Z,96168.06
2024-03-02T04:47:36.359Z,96169.00
2024-03-02T04:50:03.961Z,96189.78
2024-03-02T04:52:31.927Z,96193.78
2024-03-02T04:55:20.839Z,96203.50
2024-03-02T04:57:52.487Z,96204.38
2024-03-02T05:00:23.081Z,96213.84
2024-03-02T05:02:50.694Z,96207.97
2024-03-02T05:05:18.605Z,96212.22
2024-03-02T05:07:46.569Z,96210.25
2024-03-02T05:10:14.161Z,96218.28
2024-03-02T05:12:58.588Z,96217.97
2024-03-02T05:15:27.749Z,96225.34
2024-03-02T05:17:55.542Z,96228.34
2024-03-02T05:20:23.171Z,96229.91
2024-03-02T05:22:50.877Z,96242.16
2024-03-02T05:25:18.595Z,96235.94
2024-03-02T05:27:46.295Z,96232.13
2024-03-02T05:30:14.740Z,96224.81
2024-03-02T05:32:43.771Z,96227.19
2024-03-02T05:35:12.468Z,96226.63
2024-03-02T05:37:40.293Z,96237.66
2024-03-02T05:40:08.982Z,96237.94
2024-03-02T05:42:36.787Z,96247.84
2024-03-02T05:45:04.630Z,96249.63
2024-03-02T05:47:32.275Z,96249.53
2024-03-02T05:50:01.175Z,96250.50
2024-03-02T05:52:29.003Z,96256.19
2024-03-02T05:54:56.614Z,96257.09
2024-03-02T05:57:46.527Z,96268.38
2024-03-02T06:00:14.576Z,96274.31
2024-03-02T06:02:42.610Z,96282.69
2024-03-02T06:05:11.749Z,96287.31
2024-03-02T06:07:39.393Z,96285.56
2024-03-02T06:10:10.849Z,96295.09
2024-03-02T06:12:40.183Z,96283.69
2024-03-02T06:15:08.517Z,96293.78
2024-03-02T06:17:37.043Z,96291.59
2024-03-02T06:20:04.882Z,96291.88
2024-03-02T06:22:33.845Z,96291.44
2024-03-02T06:25:01.540Z,96289.44
2024-03-02T06:27:28.221Z,96292.53
2024-03-02T06:29:56.111Z,96298.94
2024-03-02T06:32:24.248Z,96299.38
2024-03-02T06:34:51.868Z,96305.66
2024-03-02T06:37:19.488Z,96300.69
2024-03-02T06:39:48.563Z,96303.47
2024-03-02T06:42:16.182Z,96304.56
2024-03-02T06:44:43.775Z,96310.94
2024-03-02T06:47:18.906Z,96311.28
2024-03-02T06:49:49.718Z,96297.34
2024-03-02T06:52:19.753Z,96298.13
2024-03-02T06:54:49.841Z,96299.47
2024-03-02T06:57:18.404Z,96302.56
2024-03-02T06:59:45.984Z,96297.94
2024-03-02T07:02:13.683Z,96286.91
2024-03-02T07:04:41.561Z,96282.34
2024-03-02T07:07:09.262Z,96277.81
2024-03-02T07:09:37.599Z,96271.75
2024-03-02T07:12:06.905Z,96265.81
2024-03-02T07:14:52.060Z,96258.00
2024-03-02T07:17:19.808Z,96242.28
2024-03-02T07:19:47.850Z,96247.63
2024-03-02T07:22:15.518Z,96241.88
2024-03-02T07:24:44.241Z,96237.03
2024-03-02T07:27:13.283Z,96243.38
2024-03-02T07:29:42.978Z,96234.03
2024-03-02T07:32:10.660Z,96237.25
2024-03-02T07:34:38.644Z,96231.28
2024-03-02T07:37:06.198Z,96230.91
2024-03-02T07:39:33.830Z,96229.53
2024-03-02T07:42:01.549Z,96218.91
2024-03-02T07:44:30.939Z,96218.31
2024-03-02T07:46:58.604Z,96222.81
2024-03-02T07:49:26.184Z,96219.66
2024-03-02T07:51:53.777Z,96215.28
2024-03-02T07:54:21.393Z,96218.03
2024-03-02T07:56:48.969Z,96205.94
2024-03-02T07:59:16.534Z,96209.50
2024-03-02T08:01:45.956Z,96212.94
2024-03-02T08:04:13.623Z,96209.03
2024-03-02T08:06:41.212Z,96206.31
2024-03-02T08:09:11.359Z,96209.16
2024-03-02T08:11:39.848Z,96208.78
2024-03-02T08:14:07.660Z,96218.47
2024-03-02T08:16:35.455Z,96216.72
2024-03-02T08:19:04.781Z,96214.16
2024-03-02T08:21:33.388Z,96216.63
2024-03-02T08:24:01.021Z,96212.88
2024-03-02T08:26:30.334Z,96210.88
2024-03-02T08:28:58.218Z,96213.75
2024-03-02T08:31:27.467Z,96212.97
2024-03-02T08:33:55.045Z,96219.94
2024-03-02T08:36:24.197Z,96217.72
2024-03-02T08:38:51.793Z,96212.88
2024-03-02T08:41:19.841Z,96205.66
2024-03-02T08:43:49.724Z,96208.75
2024-03-02T08:46:17.336Z,96204.09
2024-03-02T08:48:44.927Z,96197.88
2024-03-02T08:51:12.777Z,96192.44
2024-03-02T08:53:41.673Z,96187.84
2024-03-02T08:56:11.866Z,96180.53
2024-03-02T08:58:39.425Z,96186.66
2024-03-02T09:01:08.472Z,96185.84
2024-03-02T09:03:36.591Z,96182.44
2024-03-02T09:06:04.266Z,96176.94
2024-03-02T09:08:31.896Z,96180.22
2024-03-02T09:11:01.370Z,96176.16
2024-03-02T09:13:29.107Z,96169.63
2024-03-02T09:15:56.729Z,96163.81
2024-03-02T09:18:24.467Z,96162.03
2024-03-02T09:20:52.095Z,96162.00
2024-03-02T09:23:19.699Z,96154.72
2024-03-02T09:25:48.103Z,96158.00
2024-03-02T09:28:18.673Z,96157.63
2024-03-02T09:30:46.307Z,96158.22
2024-03-02T09:35:44.425Z,96154.22
2024-03-02T09:38:12.427Z,96148.94
2024-03-02T09:41:49.766Z,96134.63
2024-03-02T09:44:17.988Z,96149.56
2024-03-02T09:46:46.219Z,96148.56
2024-03-02T09:49:13.792Z,96148.56
2024-03-02T09:51:41.713Z,96139.47
2024-03-02T09:54:17.890Z,96145.91
2024-03-02T09:56:51.116Z,96147.94
2024-03-02T09:59:20.435Z,96145.72
2024-03-02T10:02:00.991Z,96144.31
2024-03-02T10:04:28.869Z,96147.50
2024-03-02T10:07:12.251Z,96150.69
2024-03-02T10:09:39.816Z,96158.50
2024-03-02T10:12:09.612Z,96168.88
2024-03-02T10:14:37.222Z,96172.91
2024-03-02T10:17:05.096Z,96177.34
2024-03-02T10:19:34.219Z,96189.06
2024-03-02T10:22:04.432Z,96184.53
2024-03-02T10:24:36.946Z,96184.56
2024-03-02T10:27:04.819Z,96192.41
2024-03-02T10:29:34.106Z,96199.81
2024-03-02T10:32:03.844Z,96199.50
2024-03-02T10:34:31.678Z,96204.41
2024-03-02T10:37:03.637Z,96224.22
2024-03-02T10:39:33.646Z,96235.66
2024-03-02T10:42:01.288Z,96239.22
2024-03-02T10:44:28.872Z,96245.50
2024-03-02T10:46:57.950Z,96249.50
2024-03-02T10:49:26.444Z,96263.31
2024-03-02T10:51:54.245Z,96254.53
2024-03-02T10:54:27.494Z,96259.13
2024-03-02T10:56:58.342Z,96255.50
2024-03-02T10:59:26.606Z,96251.88
2024-03-02T11:01:55.958Z,96250.22
2024-03-02T11:04:25.559Z,96243.44
2024-03-02T11:06:57.045Z,96254.47
2024-03-02T11:09:24.778Z,96271.19
2024-03-02T11:11:55.334Z,96270.16
2024-03-02T11:17:45.576Z,96300.91
2024-03-02T11:20:20.128Z,96301.09
2024-03-02T11:22:47.741Z,96324.25
2024-03-02T11:25:25.031Z,96326.47
2024-03-02T11:28:05.278Z,96335.34
2024-03-02T11:34:20.023Z,96391.38
2024-03-02T11:36:49.200Z,96408.97
2024-03-02T11:39:26.157Z,96409.44
2024-03-02T11:41:55.123Z,96427.88
2024-03-02T11:44:24.284Z,96398.84
2024-03-02T11:47:30.856Z,96375.88
2024-03-02T11:51:26.192Z,96362.75
2024-03-02T11:53:20.962Z,96355.66
2024-03-02T11:55:51.001Z,96345.19
2024-03-02T11:58:22.234Z,96358.25
2024-03-02T12:00:50.386Z,96366.84
2024-03-02T12:03:19.180Z,96397.03
2024-03-02T12:05:46.932Z,96410.00
2024-03-02T12:08:14.711Z,96399.53
2024-03-02T12:10:44.763Z,96401.88
2024-03-02T12:13:15.701Z,96394.69
2024-03-02T12:15:43.777Z,96368.25
2024-03-02T12:18:11.726Z,96337.28
2024-03-02T12:26:23.612Z,96346.19
2024-03-02T12:28:55.092Z,96342.50
2024-03-02T12:31:23.005Z,96364.47
2024-03-02T12:33:53.937Z,96364.94
2024-03-02T12:37:24.937Z,96366.06
2024-03-02T12:39:54.927Z,96373.72
2024-03-02T12:42:25.923Z,96371.19
2024-03-02T12:44:55.238Z,96379.75
2024-03-02T12:47:23.279Z,96402.44
2024-03-02T12:49:59.763Z,96397.72
2024-03-02T12:52:40.890Z,96394.00
2024-03-02T12:57:20.212Z,96406.28
2024-03-02T12:59:48.410Z,96398.66
2024-03-02T13:02:19.170Z,96386.69
2024-03-02T13:05:01.617Z,96388.56
2024-03-02T13:07:29.200Z,96384.09
2024-03-02T13:09:57.487Z,96376.75
2024-03-02T13:12:31.885Z,96368.41
2024-03-02T13:15:00.177Z,96367.78
2024-03-02T13:17:34.685Z,96359.66
2024-03-02T13:20:05.525Z,96356.78
2024-03-02T13:22:33.075Z,96379.84
2024-03-02T13:25:01.191Z,96372.09
2024-03-02T13:27:30.243Z,96369.44
2024-03-02T13:29:58.537Z,96360.78
2024-03-02T13:32:29.741Z,96358.72
2024-03-02T13:34:57.346Z,96343.25
2024-03-02T13:37:25.160Z,96336.25
2024-03-02T13:39:52.773Z,96313.75
2024-03-02T13:42:21.128Z,96319.00
2024-03-02T13:44:52.359Z,96316.81
2024-03-02T13:47:20.351Z,96321.88
2024-03-02T13:49:49.925Z,96323.88
2024-03-02T13:52:18.231Z,96332.31
2024-03-02T13:54:47.006Z,96339.84
2024-03-02T13:57:15.064Z,96339.53
2024-03-02T13:59:43.126Z,96333.69
2024-03-02T14:02:12.205Z,96339.75
2024-03-02T14:04:40.148Z,96343.88
2024-03-02T14:07:09.549Z,96338.34
2024-03-02T14:09:37.894Z,96325.09
2024-03-02T14:12:06.713Z,96332.47
2024-03-02T14:14:34.528Z,96321.22
2024-03-02T14:17:05.708Z,96316.72
2024-03-02T14:19:34.818Z,96319.72
2024-03-02T14:22:04.768Z,96331.97
2024-03-02T14:24:32.620Z,96314.78
2024-03-02T14:27:06.735Z,96314.59
2024-03-02T14:29:43.508Z,96313.19
2024-03-02T14:32:11.482Z,96315.78
2024-03-02T14:34:41.187Z,96319.44
2024-03-02T14:37:09.210Z,96323.59
2024-03-02T14:39:37.778Z,96321.44
2024-03-02T14:42:05.840Z,96305.97
2024-03-02T14:44:34.810Z,96321.75
2024-03-02T14:47:03.658Z,96312.31
2024-03-02T14:49:31.399Z,96315.09
2024-03-02T14:52:00.508Z,96308.72
2024-03-02T14:54:28.341Z,96317.66
2024-03-02T14:56:56.953Z,96310.34
2024-03-02T14:59:24.838Z,96309.13
2024-03-02T15:01:52.524Z,96306.97
2024-03-02T15:04:22.393Z,96301.00
2024-03-02T15:06:50.368Z,96300.69
2024-03-02T15:09:21.011Z,96308.81
2024-03-02T15:11:48.713Z,96309.63
2024-03-02T15:14:16.357Z,96303.38
2024-03-02T15:16:44.111Z,96311.69
2024-03-02T15:19:11.726Z,96307.06
2024-03-02T15:21:38.751Z,96307.47
2024-03-02T15:24:06.796Z,96298.91
2024-03-02T15:26:36.248Z,96302.28
2024-03-02T15:29:03.986Z,96296.22
2024-03-02T15:31:31.792Z,96285.38
2024-03-02T15:34:00.259Z,96271.94
2024-03-02T15:36:30.561Z,96280.72
2024-03-02T15:38:59.141Z,96280.31
2024-03-02T15:41:26.954Z,96272.09
2024-03-02T15:43:56.588Z,96273.16
2024-03-02T15:46:24.245Z,96277.03
2024-03-02T15:48:51.948Z,96267.41
2024-03-02T15:51:22.074Z,96259.94
2024-03-02T15:53:49.988Z,96263.16
2024-03-02T15:56:17.534Z,96265.19
2024-03-02T15:58:45.285Z,96259.94
2024-03-02T16:01:14.494Z,96259.53
2024-03-02T16:03:42.504Z,96258.53
2024-03-02T16:06:10.267Z,96246.75
2024-03-02T16:08:37.944Z,96242.06
2024-03-02T16:11:05.843Z,96246.22
2024-03-02T16:13:33.606Z,96234.47
2024-03-02T16:16:01.200Z,96224.38
2024-03-02T16:18:35.233Z,96213.97
2024-03-02T16:21:05.104Z,96212.94
2024-03-02T16:23:32.874Z,96195.63
2024-03-02T16:26:00.417Z,96206.41
2024-03-02T16:28:28.161Z,96204.72
2024-03-02T16:30:56.725Z,96191.53
2024-03-02T16:33:25.299Z,96181.00
2024-03-02T16:35:54.434Z,96181.63
2024-03-02T16:38:22.481Z,96178.75
2024-03-02T16:40:50.250Z,96171.31
2024-03-02T16:43:18.195Z,96167.41
2024-03-02T16:45:46.548Z,96141.47
2024-03-02T16:48:14.616Z,96141.41
2024-03-02T16:50:42.197Z,96139.06
2024-03-02T16:53:11.104Z,96127.94
2024-03-02T16:55:38.763Z,96109.38
2024-03-02T16:58:06.586Z,96081.53
2024-03-02T17:00:34.311Z,96063.78
2024-03-02T17:03:02.136Z,96048.50
2024-03-02T17:05:30.314Z,96029.47
2024-03-02T17:07:59.294Z,96016.13
2024-03-02T17:10:28.392Z,96018.22
2024-03-02T17:12:56.683Z,96013.00
2024-03-02T17:15:24.729Z,96005.34
2024-03-02T17:17:52.761Z,95996.44
2024-03-02T17:20:23.096Z,95982.63
2024-03-02T17:22:52.444Z,95986.94
2024-03-02T17:25:20.342Z,95987.59
2024-03-02T17:27:51.232Z,95958.91
2024-03-02T17:30:21.406Z,95952.44
2024-03-02T17:32:49.507Z,95945.31
2024-03-02T17:35:17.343Z,95973.00
2024-03-02T17:37:47.602Z,95966.97
2024-03-02T17:40:15.384Z,95965.34
2024-03-02T17:42:43.223Z,95969.81
2024-03-02T17:45:12.818Z,95967.00
2024-03-02T17:47:40.495Z,95968.03
2024-03-02T17:50:21.714Z,95961.72
2024-03-02T17:52:50.030Z,95959.50
2024-03-02T17:55:20.346Z,95957.53
2024-03-02T17:57:50.208Z,95953.53
2024-03-02T18:00:22.294Z,95952.50
2024-03-02T18:02:50.437Z,95953.09
2024-03-02T18:05:18.108Z,95951.09
2024-03-02T18:07:46.010Z,95954.94
2024-03-02T18:10:13.660Z,95951.94
2024-03-02T18:12:41.360Z,95940.41
2024-03-02T18:15:09.885Z,95938.81
2024-03-02T18:17:40.880Z,95934.75
2024-03-02T18:20:09.310Z,95924.22
2024-03-02T18:22:37.137Z,95932.78
2024-03-02T18:25:05.345Z,95925.28
2024-03-02T18:27:35.090Z,95927.91
2024-03-02T18:30:11.182Z,95917.81
2024-03-02T18:32:40.804Z,95921.25
2024-03-02T18:35:09.736Z,95920.25
2024-03-02T18:37:37.655Z,95923.69
2024-03-02T18:40:06.323Z,95914.44
2024-03-02T18:42:34.418Z,95902.94
2024-03-02T18:45:04.920Z,95902.72
2024-03-02T18:47:32.935Z,95906.13
2024-03-02T18:50:04.023Z,95896.47
2024-03-02T18:52:34.978Z,95891.63
2024-03-02T18:55:04.186Z,95887.16
2024-03-02T18:57:32.038Z,95897.84
2024-03-02T18:59:59.676Z,95901.28
2024-03-02T19:02:27.362Z,95916.19
2024-03-02T19:04:55.308Z,95912.16
2024-03-02T19:07:25.041Z,95898.44
2024-03-02T19:09:52.818Z,95885.13
2024-03-02T19:12:20.436Z,95884.34
2024-03-02T19:14:47.989Z,95871.41
2024-03-02T19:17:15.797Z,95866.16
2024-03-02T19:19:43.570Z,95859.41
2024-03-02T19:22:12.252Z,95847.59
2024-03-02T19:24:41.857Z,95837.69
2024-03-02T19:27:09.574Z,95826.13
2024-03-02T19:29:37.161Z,95808.06
2024-03-02T19:32:08.572Z,95801.22
2024-03-02T19:34:40.319Z,95806.28
2024-03-02T19:37:08.632Z,95796.84
2024-03-02T19:39:40.124Z,95788.81
2024-03-02T19:42:10.247Z,95788.41
2024-03-02T19:44:38.120Z,95785.59
2024-03-02T19:47:05.698Z,95797.25
2024-03-02T19:49:33.418Z,95797.31
2024-03-02T19:52:01.608Z,95794.41
2024-03-02T19:54:29.285Z,95792.97
2024-03-02T19:56:56.987Z,95789.47
2024-03-02T19:59:25.954Z,95785.13
2024-03-02T20:01:53.885Z,95793.06
2024-03-02T20:04:25.807Z,95780.22
2024-03-02T20:06:53.584Z,95764.94
2024-03-02T20:09:23.657Z,95756.31
2024-03-02T20:11:52.189Z,95745.69
2024-03-02T20:14:20.125Z,95734.41
2024-03-02T20:16:49.157Z,95744.09
2024-03-02T20:19:19.236Z,95743.69
2024-03-02T20:21:47.085Z,95731.59
2024-03-02T20:24:15.680Z,95735.03
2024-03-02T20:26:43.251Z,95720.31
2024-03-02T20:29:10.996Z,95719.31
2024-03-02T20:31:39.196Z,95720.72
2024-03-02T20:34:08.425Z,95717.09
2024-03-02T20:36:36.572Z,95709.47
2024-03-02T20:39:06.353Z,95710.84
2024-03-02T20:41:34.469Z,95719.13
2024-03-02T20:44:02.239Z,95710.47
2024-03-02T20:46:30.066Z,95722.53
2024-03-02T20:49:00.683Z,95710.66
2024-03-02T20:51:30.946Z,95720.53
2024-03-02T20:54:00.105Z,95703.78
2024-03-02T20:56:28.249Z,95710.03
2024-03-02T20:58:57.115Z,95711.66
2024-03-02T21:01:25.177Z,95723.94
2024-03-02T21:03:52.747Z,95717.69
2024-03-02T21:06:20.894Z,95715.88
2024-03-02T21:08:50.149Z,95716.66
2024-03-02T21:11:19.571Z,95727.56
2024-03-02T21:13:48.946Z,95730.81
2024-03-02T21:16:17.431Z,95722.91
2024-03-02T21:18:45.301Z,95728.38
2024-03-02T21:21:13.243Z,95735.84
2024-03-02T21:23:40.913Z,95744.47
2024-03-02T21:26:10.255Z,95745.66
2024-03-02T21:28:38.212Z,95736.41
2024-03-02T21:31:05.997Z,95734.38
2024-03-02T21:33:33.689Z,95742.47
2024-03-02T21:36:01.335Z,95745.59
2024-03-02T21:38:29.041Z,95744.56
2024-03-02T21:40:56.778Z,95733.91
2024-03-02T21:43:29.292Z,95733.94
2024-03-02T21:45:57.012Z,95727.09
2024-03-02T21:48:24.644Z,95727.91
2024-03-02T21:50:52.212Z,95714.28
2024-03-02T21:53:19.810Z,95715.66
2024-03-02T21:55:47.343Z,95711.84
2024-03-02T21:58:15.499Z,95697.38
2024-03-02T22:00:44.579Z,95701.38
2024-03-02T22:03:12.233Z,95694.94
2024-03-02T22:05:42.134Z,95691.34
2024-03-02T22:08:09.758Z,95696.13
2024-03-02T22:10:37.325Z,95694.13
2024-03-02T22:13:05.005Z,95698.56
2024-03-02T22:15:32.682Z,95698.13
2024-03-02T22:18:04.363Z,95708.19
2024-03-02T22:20:32.178Z,95724.13
2024-03-02T22:22:59.730Z,95723.53
2024-03-02T22:25:27.329Z,95732.81
2024-03-02T22:27:56.959Z,95727.19
2024-03-02T22:30:24.666Z,95733.22
2024-03-02T22:32:52.936Z,95742.88
2024-03-02T22:35:23.970Z,95736.44
2024-03-02T22:37:51.740Z,95756.91
2024-03-02T22:40:19.402Z,95755.13
2024-03-02T22:42:47.073Z,95764.84
2024-03-02T22:45:14.778Z,95752.13
2024-03-02T22:47:42.341Z,95755.31
2024-03-02T22:50:10.080Z,95733.78
2024-03-02T22:52:38.970Z,95730.72
2024-03-02T22:55:07.052Z,95722.13
2024-03-02T22:57:34.770Z,95713.72
2024-03-02T23:00:02.379Z,95710.97
2024-03-02T23:02:30.081Z,95695.22
2024-03-02T23:04:57.816Z,95693.69
2024-03-02T23:07:25.450Z,95692.09
2024-03-02T23:09:54.924Z,95681.94
2024-03-02T23:12:22.645Z,95680.72
2024-03-02T23:14:50.219Z,95684.81
2024-03-02T23:17:17.797Z,95663.34
2024-03-02T23:19:45.431Z,95664.41
2024-03-02T23:22:14.274Z,95663.25
2024-03-02T23:24:42.719Z,95649.59
2024-03-02T23:27:11.698Z,95648.59
2024-03-02T23:29:41.191Z,95641.81
2024-03-02T23:32:08.871Z,95633.94
2024-03-02T23:34:36.497Z,95624.91
2024-03-02T23:37:04.132Z,95626.44
2024-03-02T23:39:49.301Z,95627.88
2024-03-02T23:42:18.243Z,95625.69
2024-03-02T23:44:45.803Z,95625.84
2024-03-02T23:47:13.372Z,95617.28
2024-03-02T23:49:40.946Z,95602.25
2024-03-02T23:52:08.567Z,95605.03
2024-03-02T23:54:36.198Z,95607.31
2024-03-02T23:57:04.208Z,95605.28
2024-03-02T23:59:33.544Z,95609.09
